sensor_id;sensor_type;location;lat;lon;timestamp;P1;durP1;ratioP1;P2;durP2;ratioP2
3943;SDS011;1986;52.546;13.428;2023-06-26T00:01:40;13.40;;;12.90;;
3943;SDS011;1986;52.546;13.428;2023-06-26T00:04:08;13.50;;;13.00;;
3943;SDS011;1986;52.546;13.428;2023-06-26T00:06:39;12.70;;;12.30;;
3943;SDS011;1986;52.546;13.428;2023-06-26T00:09:07;13.20;;;12.80;;
3943;SDS011;1986;52.546;13.428;2023-06-26T00:11:38;12.80;;;12.40;;
3943;SDS011;1986;52.546;13.428;2023-06-26T00:14:06;12.83;;;12.43;;
3943;SDS011;1986;52.546;13.428;2023-06-26T00:16:36;14.00;;;13.50;;
3943;SDS011;1986;52.546;13.428;2023-06-26T00:19:07;12.90;;;12.50;;
3943;SDS011;1986;52.546;13.428;2023-06-26T00:21:41;13.57;;;13.13;;
3943;SDS011;1986;52.546;13.428;2023-06-26T00:24:13;12.90;;;12.50;;
3943;SDS011;1986;52.546;13.428;2023-06-26T00:26:41;13.00;;;12.60;;
3943;SDS011;1986;52.546;13.428;2023-06-26T00:29:09;12.70;;;12.30;;
3943;SDS011;1986;52.546;13.428;2023-06-26T00:31:36;13.40;;;12.90;;
3943;SDS011;1986;52.546;13.428;2023-06-26T00:34:05;13.33;;;12.93;;
3943;SDS011;1986;52.546;13.428;2023-06-26T00:36:32;14.07;;;13.57;;
3943;SDS011;1986;52.546;13.428;2023-06-26T00:38:59;14.43;;;13.90;;
3943;SDS011;1986;52.546;13.428;2023-06-26T00:41:28;13.70;;;13.20;;
3943;SDS011;1986;52.546;13.428;2023-06-26T00:43:58;14.20;;;13.70;;
3943;SDS011;1986;52.546;13.428;2023-06-26T00:46:24;14.07;;;13.57;;
3943;SDS011;1986;52.546;13.428;2023-06-26T00:48:53;14.50;;;14.00;;
3943;SDS011;1986;52.546;13.428;2023-06-26T00:51:23;14.17;;;13.67;;
3943;SDS011;1986;52.546;13.428;2023-06-26T00:53:51;14.13;;;13.63;;
3943;SDS011;1986;52.546;13.428;2023-06-26T00:56:20;15.30;;;14.03;;
3943;SDS011;1986;52.546;13.428;2023-06-26T00:58:47;13.70;;;13.20;;
3943;SDS011;1986;52.546;13.428;2023-06-26T01:01:16;14.50;;;13.90;;
3943;SDS011;1986;52.546;13.428;2023-06-26T01:03:48;14.73;;;14.13;;
3943;SDS011;1986;52.546;13.428;2023-06-26T01:06:17;14.10;;;13.60;;
3943;SDS011;1986;52.546;13.428;2023-06-26T01:08:47;13.83;;;13.33;;
3943;SDS011;1986;52.546;13.428;2023-06-26T01:11:16;14.27;;;13.77;;
3943;SDS011;1986;52.546;13.428;2023-06-26T01:13:44;13.83;;;13.33;;
3943;SDS011;1986;52.546;13.428;2023-06-26T01:16:13;13.90;;;13.40;;
3943;SDS011;1986;52.546;13.428;2023-06-26T01:18:46;13.70;;;13.20;;
3943;SDS011;1986;52.546;13.428;2023-06-26T01:21:19;14.47;;;13.97;;
3943;SDS011;1986;52.546;13.428;2023-06-26T01:23:57;14.67;;;14.03;;
3943;SDS011;1986;52.546;13.428;2023-06-26T01:26:32;14.47;;;13.97;;
3943;SDS011;1986;52.546;13.428;2023-06-26T01:29:01;13.90;;;13.40;;
3943;SDS011;1986;52.546;13.428;2023-06-26T01:31:31;15.20;;;14.53;;
3943;SDS011;1986;52.546;13.428;2023-06-26T01:33:59;14.10;;;13.60;;
3943;SDS011;1986;52.546;13.428;2023-06-26T01:36:27;14.73;;;14.23;;
3943;SDS011;1986;52.546;13.428;2023-06-26T01:38:54;14.43;;;13.93;;
3943;SDS011;1986;52.546;13.428;2023-06-26T01:41:23;14.57;;;14.07;;
3943;SDS011;1986;52.546;13.428;2023-06-26T01:43:57;15.13;;;14.33;;
3943;SDS011;1986;52.546;13.428;2023-06-26T01:46:39;14.00;;;13.50;;
3943;SDS011;1986;52.546;13.428;2023-06-26T01:49:15;14.23;;;13.73;;
3943;SDS011;1986;52.546;13.428;2023-06-26T01:51:51;14.20;;;13.70;;
3943;SDS011;1986;52.546;13.428;2023-06-26T01:54:29;15.23;;;14.63;;
3943;SDS011;1986;52.546;13.428;2023-06-26T01:56:59;17.90;;;17.13;;
3943;SDS011;1986;52.546;13.428;2023-06-26T01:59:37;14.50;;;13.97;;
3943;SDS011;1986;52.546;13.428;2023-06-26T02:02:06;14.53;;;13.93;;
3943;SDS011;1986;52.546;13.428;2023-06-26T02:04:37;14.67;;;14.17;;
3943;SDS011;1986;52.546;13.428;2023-06-26T02:07:04;14.30;;;13.80;;
3943;SDS011;1986;52.546;13.428;2023-06-26T02:09:32;14.20;;;13.70;;
3943;SDS011;1986;52.546;13.428;2023-06-26T02:12:02;13.70;;;13.20;;
3943;SDS011;1986;52.546;13.428;2023-06-26T02:14:30;14.03;;;13.53;;
3943;SDS011;1986;52.546;13.428;2023-06-26T02:17:03;14.50;;;14.00;;
3943;SDS011;1986;52.546;13.428;2023-06-26T02:19:33;13.80;;;13.30;;
3943;SDS011;1986;52.546;13.428;2023-06-26T02:22:01;13.93;;;13.43;;
3943;SDS011;1986;52.546;13.428;2023-06-26T02:24:31;14.10;;;13.60;;
3943;SDS011;1986;52.546;13.428;2023-06-26T02:26:59;13.90;;;13.40;;
3943;SDS011;1986;52.546;13.428;2023-06-26T02:29:28;13.70;;;13.20;;
3943;SDS011;1986;52.546;13.428;2023-06-26T02:31:57;13.80;;;13.30;;
3943;SDS011;1986;52.546;13.428;2023-06-26T02:34:25;13.17;;;12.77;;
3943;SDS011;1986;52.546;13.428;2023-06-26T02:36:52;13.07;;;12.67;;
3943;SDS011;1986;52.546;13.428;2023-06-26T02:39:21;14.10;;;13.47;;
3943;SDS011;1986;52.546;13.428;2023-06-26T02:41:48;13.03;;;12.63;;
3943;SDS011;1986;52.546;13.428;2023-06-26T02:44:15;13.63;;;12.83;;
3943;SDS011;1986;52.546;13.428;2023-06-26T02:46:43;13.77;;;13.13;;
3943;SDS011;1986;52.546;13.428;2023-06-26T02:49:11;12.03;;;11.63;;
3943;SDS011;1986;52.546;13.428;2023-06-26T02:51:39;12.70;;;12.30;;
3943;SDS011;1986;52.546;13.428;2023-06-26T02:54:06;12.27;;;11.87;;
3943;SDS011;1986;52.546;13.428;2023-06-26T02:56:33;12.13;;;11.73;;
3943;SDS011;1986;52.546;13.428;2023-06-26T02:59:00;13.40;;;12.77;;
3943;SDS011;1986;52.546;13.428;2023-06-26T03:01:27;15.27;;;14.10;;
3943;SDS011;1986;52.546;13.428;2023-06-26T03:03:55;12.17;;;11.77;;
3943;SDS011;1986;52.546;13.428;2023-06-26T03:06:24;12.60;;;12.20;;
3943;SDS011;1986;52.546;13.428;2023-06-26T03:08:51;14.80;;;14.20;;
3943;SDS011;1986;52.546;13.428;2023-06-26T03:11:20;13.07;;;12.57;;
3943;SDS011;1986;52.546;13.428;2023-06-26T03:13:48;12.67;;;12.27;;
3943;SDS011;1986;52.546;13.428;2023-06-26T03:16:15;12.60;;;12.20;;
3943;SDS011;1986;52.546;13.428;2023-06-26T03:18:42;12.40;;;12.00;;
3943;SDS011;1986;52.546;13.428;2023-06-26T03:21:09;10.87;;;10.57;;
3943;SDS011;1986;52.546;13.428;2023-06-26T03:23:38;11.50;;;10.80;;
3943;SDS011;1986;52.546;13.428;2023-06-26T03:26:06;9.70;;;9.50;;
3943;SDS011;1986;52.546;13.428;2023-06-26T03:28:33;9.30;;;9.10;;
3943;SDS011;1986;52.546;13.428;2023-06-26T03:31:03;10.47;;;10.17;;
3943;SDS011;1986;52.546;13.428;2023-06-26T03:33:37;11.43;;;11.13;;
3943;SDS011;1986;52.546;13.428;2023-06-26T03:36:05;10.97;;;10.57;;
3943;SDS011;1986;52.546;13.428;2023-06-26T03:38:35;11.10;;;10.77;;
3943;SDS011;1986;52.546;13.428;2023-06-26T03:41:07;9.87;;;9.67;;
3943;SDS011;1986;52.546;13.428;2023-06-26T03:43:34;9.50;;;9.30;;
3943;SDS011;1986;52.546;13.428;2023-06-26T03:46:01;10.37;;;10.07;;
3943;SDS011;1986;52.546;13.428;2023-06-26T03:48:28;10.97;;;10.63;;
3943;SDS011;1986;52.546;13.428;2023-06-26T03:50:55;13.57;;;12.83;;
3943;SDS011;1986;52.546;13.428;2023-06-26T03:53:22;10.57;;;10.27;;
3943;SDS011;1986;52.546;13.428;2023-06-26T03:55:55;11.27;;;10.87;;
3943;SDS011;1986;52.546;13.428;2023-06-26T03:58:24;12.33;;;11.67;;
3943;SDS011;1986;52.546;13.428;2023-06-26T04:00:51;11.77;;;11.37;;
3943;SDS011;1986;52.546;13.428;2023-06-26T04:03:22;11.43;;;11.13;;
3943;SDS011;1986;52.546;13.428;2023-06-26T04:05:51;11.40;;;11.10;;
3943;SDS011;1986;52.546;13.428;2023-06-26T04:08:19;13.43;;;13.03;;
3943;SDS011;1986;52.546;13.428;2023-06-26T04:10:48;13.70;;;13.17;;
3943;SDS011;1986;52.546;13.428;2023-06-26T04:13:17;12.63;;;12.23;;
3943;SDS011;1986;52.546;13.428;2023-06-26T04:15:45;13.93;;;13.43;;
3943;SDS011;1986;52.546;13.428;2023-06-26T04:18:13;14.27;;;13.77;;
3943;SDS011;1986;52.546;13.428;2023-06-26T04:20:41;15.90;;;15.10;;
3943;SDS011;1986;52.546;13.428;2023-06-26T04:23:30;16.87;;;16.17;;
3943;SDS011;1986;52.546;13.428;2023-06-26T04:25:57;16.10;;;15.40;;
3943;SDS011;1986;52.546;13.428;2023-06-26T04:28:24;16.13;;;15.53;;
3943;SDS011;1986;52.546;13.428;2023-06-26T04:30:55;17.53;;;16.63;;
3943;SDS011;1986;52.546;13.428;2023-06-26T04:33:22;15.17;;;14.67;;
3943;SDS011;1986;52.546;13.428;2023-06-26T04:35:51;17.77;;;16.77;;
3943;SDS011;1986;52.546;13.428;2023-06-26T04:38:19;16.40;;;15.80;;
3943;SDS011;1986;52.546;13.428;2023-06-26T04:40:46;17.00;;;16.30;;
3943;SDS011;1986;52.546;13.428;2023-06-26T04:43:14;16.73;;;16.03;;
3943;SDS011;1986;52.546;13.428;2023-06-26T04:45:41;17.00;;;16.30;;
3943;SDS011;1986;52.546;13.428;2023-06-26T04:48:09;17.80;;;16.93;;
3943;SDS011;1986;52.546;13.428;2023-06-26T04:50:39;23.17;;;20.63;;
3943;SDS011;1986;52.546;13.428;2023-06-26T04:53:07;17.10;;;16.40;;
3943;SDS011;1986;52.546;13.428;2023-06-26T04:55:34;18.27;;;17.47;;
3943;SDS011;1986;52.546;13.428;2023-06-26T04:58:03;17.43;;;16.73;;
3943;SDS011;1986;52.546;13.428;2023-06-26T05:00:29;17.37;;;16.67;;
3943;SDS011;1986;52.546;13.428;2023-06-26T05:02:57;19.50;;;18.40;;
3943;SDS011;1986;52.546;13.428;2023-06-26T05:05:27;20.00;;;18.67;;
3943;SDS011;1986;52.546;13.428;2023-06-26T05:07:56;19.90;;;18.90;;
3943;SDS011;1986;52.546;13.428;2023-06-26T05:10:23;19.43;;;18.50;;
3943;SDS011;1986;52.546;13.428;2023-06-26T05:12:50;21.20;;;19.83;;
3943;SDS011;1986;52.546;13.428;2023-06-26T05:15:17;23.20;;;21.37;;
3943;SDS011;1986;52.546;13.428;2023-06-26T05:17:44;20.67;;;19.67;;
3943;SDS011;1986;52.546;13.428;2023-06-26T05:20:11;19.00;;;18.20;;
3943;SDS011;1986;52.546;13.428;2023-06-26T05:22:43;19.10;;;18.20;;
3943;SDS011;1986;52.546;13.428;2023-06-26T05:25:10;20.70;;;19.50;;
3943;SDS011;1986;52.546;13.428;2023-06-26T05:27:42;21.47;;;20.47;;
3943;SDS011;1986;52.546;13.428;2023-06-26T05:30:10;20.73;;;19.63;;
3943;SDS011;1986;52.546;13.428;2023-06-26T05:32:43;19.80;;;18.90;;
3943;SDS011;1986;52.546;13.428;2023-06-26T05:35:13;21.57;;;20.47;;
3943;SDS011;1986;52.546;13.428;2023-06-26T05:37:44;19.27;;;18.37;;
3943;SDS011;1986;52.546;13.428;2023-06-26T05:40:18;20.80;;;19.70;;
3943;SDS011;1986;52.546;13.428;2023-06-26T05:42:46;20.73;;;19.67;;
3943;SDS011;1986;52.546;13.428;2023-06-26T05:45:14;19.90;;;18.90;;
3943;SDS011;1986;52.546;13.428;2023-06-26T05:47:42;20.93;;;19.73;;
3943;SDS011;1986;52.546;13.428;2023-06-26T05:50:10;21.00;;;19.80;;
3943;SDS011;1986;52.546;13.428;2023-06-26T05:52:41;21.17;;;20.07;;
3943;SDS011;1986;52.546;13.428;2023-06-26T05:55:12;21.93;;;20.17;;
3943;SDS011;1986;52.546;13.428;2023-06-26T05:57:40;21.27;;;20.17;;
3943;SDS011;1986;52.546;13.428;2023-06-26T06:00:10;21.90;;;20.70;;
3943;SDS011;1986;52.546;13.428;2023-06-26T06:02:38;23.43;;;21.50;;
3943;SDS011;1986;52.546;13.428;2023-06-26T06:05:06;20.67;;;19.53;;
3943;SDS011;1986;52.546;13.428;2023-06-26T06:07:49;20.80;;;19.70;;
3943;SDS011;1986;52.546;13.428;2023-06-26T06:10:22;20.60;;;19.50;;
3943;SDS011;1986;52.546;13.428;2023-06-26T06:12:50;21.47;;;20.23;;
3943;SDS011;1986;52.546;13.428;2023-06-26T06:15:26;22.13;;;20.83;;
3943;SDS011;1986;52.546;13.428;2023-06-26T06:17:53;21.53;;;20.33;;
3943;SDS011;1986;52.546;13.428;2023-06-26T06:20:20;22.40;;;21.00;;
3943;SDS011;1986;52.546;13.428;2023-06-26T06:22:49;23.77;;;22.13;;
3943;SDS011;1986;52.546;13.428;2023-06-26T06:25:19;22.10;;;20.77;;
3943;SDS011;1986;52.546;13.428;2023-06-26T06:27:46;24.03;;;22.27;;
3943;SDS011;1986;52.546;13.428;2023-06-26T06:30:13;21.70;;;20.50;;
3943;SDS011;1986;52.546;13.428;2023-06-26T06:32:40;21.10;;;19.90;;
3943;SDS011;1986;52.546;13.428;2023-06-26T06:35:07;21.97;;;20.47;;
3943;SDS011;1986;52.546;13.428;2023-06-26T06:37:35;24.53;;;22.80;;
3943;SDS011;1986;52.546;13.428;2023-06-26T06:40:03;24.43;;;22.80;;
3943;SDS011;1986;52.546;13.428;2023-06-26T06:42:38;23.20;;;21.60;;
3943;SDS011;1986;52.546;13.428;2023-06-26T06:45:05;22.00;;;20.70;;
3943;SDS011;1986;52.546;13.428;2023-06-26T06:47:33;23.07;;;21.63;;
3943;SDS011;1986;52.546;13.428;2023-06-26T06:50:00;22.50;;;21.17;;
3943;SDS011;1986;52.546;13.428;2023-06-26T06:52:34;22.40;;;21.00;;
3943;SDS011;1986;52.546;13.428;2023-06-26T06:55:02;22.40;;;21.00;;
3943;SDS011;1986;52.546;13.428;2023-06-26T06:57:33;24.10;;;22.50;;
3943;SDS011;1986;52.546;13.428;2023-06-26T07:00:03;23.30;;;21.70;;
3943;SDS011;1986;52.546;13.428;2023-06-26T07:02:33;24.73;;;23.13;;
3943;SDS011;1986;52.546;13.428;2023-06-26T07:05:00;24.30;;;22.60;;
3943;SDS011;1986;52.546;13.428;2023-06-26T07:07:28;23.80;;;22.20;;
3943;SDS011;1986;52.546;13.428;2023-06-26T07:09:58;24.13;;;22.50;;
3943;SDS011;1986;52.546;13.428;2023-06-26T07:12:25;24.03;;;22.37;;
3943;SDS011;1986;52.546;13.428;2023-06-26T07:14:53;24.30;;;22.60;;
3943;SDS011;1986;52.546;13.428;2023-06-26T07:17:21;24.70;;;23.00;;
3943;SDS011;1986;52.546;13.428;2023-06-26T07:19:48;25.33;;;23.53;;
3943;SDS011;1986;52.546;13.428;2023-06-26T07:22:15;25.57;;;23.67;;
3943;SDS011;1986;52.546;13.428;2023-06-26T07:24:44;25.53;;;23.50;;
3943;SDS011;1986;52.546;13.428;2023-06-26T07:27:11;25.10;;;23.30;;
3943;SDS011;1986;52.546;13.428;2023-06-26T07:29:38;25.27;;;23.37;;
3943;SDS011;1986;52.546;13.428;2023-06-26T07:32:06;25.40;;;23.50;;
3943;SDS011;1986;52.546;13.428;2023-06-26T07:34:33;25.93;;;24.03;;
3943;SDS011;1986;52.546;13.428;2023-06-26T07:37:00;26.00;;;24.10;;
3943;SDS011;1986;52.546;13.428;2023-06-26T07:39:27;26.73;;;24.70;;
3943;SDS011;1986;52.546;13.428;2023-06-26T07:41:55;27.70;;;25.80;;
3943;SDS011;1986;52.546;13.428;2023-06-26T07:44:23;28.10;;;26.10;;
3943;SDS011;1986;52.546;13.428;2023-06-26T07:46:50;29.37;;;27.30;;
3943;SDS011;1986;52.546;13.428;2023-06-26T07:49:21;29.63;;;27.53;;
3943;SDS011;1986;52.546;13.428;2023-06-26T07:51:48;29.23;;;27.23;;
3943;SDS011;1986;52.546;13.428;2023-06-26T07:54:15;32.77;;;30.27;;
3943;SDS011;1986;52.546;13.428;2023-06-26T07:56:52;29.23;;;27.23;;
3943;SDS011;1986;52.546;13.428;2023-06-26T07:59:20;30.70;;;28.60;;
3943;SDS011;1986;52.546;13.428;2023-06-26T08:01:48;29.80;;;27.80;;
3943;SDS011;1986;52.546;13.428;2023-06-26T08:04:15;30.93;;;28.43;;
3943;SDS011;1986;52.546;13.428;2023-06-26T08:06:45;30.40;;;28.20;;
3943;SDS011;1986;52.546;13.428;2023-06-26T08:09:12;30.80;;;28.60;;
3943;SDS011;1986;52.546;13.428;2023-06-26T08:11:39;27.60;;;25.50;;
3943;SDS011;1986;52.546;13.428;2023-06-26T08:14:06;27.60;;;25.50;;
3943;SDS011;1986;52.546;13.428;2023-06-26T08:16:32;27.77;;;25.67;;
3943;SDS011;1986;52.546;13.428;2023-06-26T08:19:00;28.40;;;26.30;;
3943;SDS011;1986;52.546;13.428;2023-06-26T08:21:27;28.87;;;26.67;;
3943;SDS011;1986;52.546;13.428;2023-06-26T08:23:55;28.90;;;26.70;;
3943;SDS011;1986;52.546;13.428;2023-06-26T08:26:23;27.60;;;25.60;;
3943;SDS011;1986;52.546;13.428;2023-06-26T08:28:50;28.97;;;26.77;;
3943;SDS011;1986;52.546;13.428;2023-06-26T08:31:17;30.33;;;28.03;;
3943;SDS011;1986;52.546;13.428;2023-06-26T08:33:44;32.37;;;29.77;;
3943;SDS011;1986;52.546;13.428;2023-06-26T08:36:13;30.47;;;28.17;;
3943;SDS011;1986;52.546;13.428;2023-06-26T08:38:42;29.73;;;27.53;;
3943;SDS011;1986;52.546;13.428;2023-06-26T08:41:10;32.53;;;29.77;;
3943;SDS011;1986;52.546;13.428;2023-06-26T08:43:37;29.60;;;27.50;;
3943;SDS011;1986;52.546;13.428;2023-06-26T08:46:05;31.57;;;29.17;;
3943;SDS011;1986;52.546;13.428;2023-06-26T08:48:40;30.83;;;28.67;;
3943;SDS011;1986;52.546;13.428;2023-06-26T08:51:12;37.43;;;34.93;;
3943;SDS011;1986;52.546;13.428;2023-06-26T08:53:43;40.47;;;37.50;;
3943;SDS011;1986;52.546;13.428;2023-06-26T08:59:09;36.53;;;34.10;;
3943;SDS011;1986;52.546;13.428;2023-06-26T09:01:39;38.07;;;35.47;;
3943;SDS011;1986;52.546;13.428;2023-06-26T09:04:17;37.63;;;35.03;;
3943;SDS011;1986;52.546;13.428;2023-06-26T09:06:45;37.10;;;34.17;;
3943;SDS011;1986;52.546;13.428;2023-06-26T09:09:12;37.13;;;34.53;;
3943;SDS011;1986;52.546;13.428;2023-06-26T09:11:41;37.30;;;34.70;;
3943;SDS011;1986;52.546;13.428;2023-06-26T09:14:09;41.73;;;38.33;;
3943;SDS011;1986;52.546;13.428;2023-06-26T09:16:40;37.20;;;34.50;;
3943;SDS011;1986;52.546;13.428;2023-06-26T09:19:09;38.17;;;35.07;;
3943;SDS011;1986;52.546;13.428;2023-06-26T09:21:37;32.23;;;29.83;;
3943;SDS011;1986;52.546;13.428;2023-06-26T09:24:06;34.43;;;31.63;;
3943;SDS011;1986;52.546;13.428;2023-06-26T09:26:35;32.97;;;30.57;;
3943;SDS011;1986;52.546;13.428;2023-06-26T09:29:03;31.80;;;29.50;;
3943;SDS011;1986;52.546;13.428;2023-06-26T09:31:32;31.80;;;29.50;;
3943;SDS011;1986;52.546;13.428;2023-06-26T09:34:01;32.40;;;30.10;;
3943;SDS011;1986;52.546;13.428;2023-06-26T09:36:32;35.07;;;32.50;;
3943;SDS011;1986;52.546;13.428;2023-06-26T09:39:07;33.60;;;31.20;;
3943;SDS011;1986;52.546;13.428;2023-06-26T09:41:41;32.40;;;29.83;;
3943;SDS011;1986;52.546;13.428;2023-06-26T09:44:25;32.97;;;30.37;;
3943;SDS011;1986;52.546;13.428;2023-06-26T09:46:55;31.90;;;29.60;;
3943;SDS011;1986;52.546;13.428;2023-06-26T09:49:25;31.30;;;28.90;;
3943;SDS011;1986;52.546;13.428;2023-06-26T09:51:55;34.23;;;31.10;;
3943;SDS011;1986;52.546;13.428;2023-06-26T09:54:22;34.37;;;31.30;;
3943;SDS011;1986;52.546;13.428;2023-06-26T09:56:52;34.83;;;31.93;;
3943;SDS011;1986;52.546;13.428;2023-06-26T09:59:28;33.70;;;31.20;;
3943;SDS011;1986;52.546;13.428;2023-06-26T10:01:59;33.30;;;30.87;;
3943;SDS011;1986;52.546;13.428;2023-06-26T10:04:27;34.80;;;32.00;;
3943;SDS011;1986;52.546;13.428;2023-06-26T10:07:11;35.37;;;32.57;;
3943;SDS011;1986;52.546;13.428;2023-06-26T10:09:41;33.67;;;31.07;;
3943;SDS011;1986;52.546;13.428;2023-06-26T10:12:16;40.20;;;37.30;;
3943;SDS011;1986;52.546;13.428;2023-06-26T10:14:51;40.23;;;37.43;;
3943;SDS011;1986;52.546;13.428;2023-06-26T10:17:19;38.53;;;35.93;;
3943;SDS011;1986;52.546;13.428;2023-06-26T10:19:48;40.13;;;37.33;;
3943;SDS011;1986;52.546;13.428;2023-06-26T10:22:16;44.30;;;41.20;;
3943;SDS011;1986;52.546;13.428;2023-06-26T10:24:45;39.60;;;36.70;;
3943;SDS011;1986;52.546;13.428;2023-06-26T10:27:15;39.90;;;37.20;;
3943;SDS011;1986;52.546;13.428;2023-06-26T10:29:52;43.20;;;39.63;;
3943;SDS011;1986;52.546;13.428;2023-06-26T10:32:21;41.20;;;38.30;;
3943;SDS011;1986;52.546;13.428;2023-06-26T10:34:53;39.00;;;36.30;;
3943;SDS011;1986;52.546;13.428;2023-06-26T10:40:07;44.00;;;39.60;;
3943;SDS011;1986;52.546;13.428;2023-06-26T10:42:35;40.03;;;36.80;;
3943;SDS011;1986;52.546;13.428;2023-06-26T10:45:13;40.03;;;37.03;;
3943;SDS011;1986;52.546;13.428;2023-06-26T10:47:42;39.63;;;36.83;;
3943;SDS011;1986;52.546;13.428;2023-06-26T10:50:18;33.63;;;31.03;;
3943;SDS011;1986;52.546;13.428;2023-06-26T10:55:48;34.50;;;32.00;;
3943;SDS011;1986;52.546;13.428;2023-06-26T10:58:29;33.60;;;31.10;;
3943;SDS011;1986;52.546;13.428;2023-06-26T11:01:23;33.80;;;31.30;;
3943;SDS011;1986;52.546;13.428;2023-06-26T11:04:04;32.30;;;29.90;;
3943;SDS011;1986;52.546;13.428;2023-06-26T11:06:34;33.17;;;30.47;;
3943;SDS011;1986;52.546;13.428;2023-06-26T11:12:37;38.23;;;35.13;;
3943;SDS011;1986;52.546;13.428;2023-06-26T11:15:11;34.53;;;31.93;;
3943;SDS011;1986;52.546;13.428;2023-06-26T11:17:43;36.77;;;33.83;;
3943;SDS011;1986;52.546;13.428;2023-06-26T11:20:13;34.43;;;31.60;;
3943;SDS011;1986;52.546;13.428;2023-06-26T11:22:43;34.43;;;31.43;;
3943;SDS011;1986;52.546;13.428;2023-06-26T11:25:15;39.53;;;36.73;;
3943;SDS011;1986;52.546;13.428;2023-06-26T11:27:43;38.97;;;35.80;;
3943;SDS011;1986;52.546;13.428;2023-06-26T11:30:11;37.80;;;35.30;;
3943;SDS011;1986;52.546;13.428;2023-06-26T11:32:52;38.77;;;36.07;;
3943;SDS011;1986;52.546;13.428;2023-06-26T11:35:32;37.57;;;34.97;;
3943;SDS011;1986;52.546;13.428;2023-06-26T11:38:01;38.67;;;36.07;;
3943;SDS011;1986;52.546;13.428;2023-06-26T11:40:31;38.00;;;35.40;;
3943;SDS011;1986;52.546;13.428;2023-06-26T11:43:00;40.53;;;37.63;;
3943;SDS011;1986;52.546;13.428;2023-06-26T11:45:29;40.00;;;37.30;;
3943;SDS011;1986;52.546;13.428;2023-06-26T11:48:01;41.20;;;38.40;;
3943;SDS011;1986;52.546;13.428;2023-06-26T11:50:29;40.80;;;37.90;;
3943;SDS011;1986;52.546;13.428;2023-06-26T11:52:56;41.43;;;38.63;;
3943;SDS011;1986;52.546;13.428;2023-06-26T11:55:24;40.83;;;38.03;;
3943;SDS011;1986;52.546;13.428;2023-06-26T11:57:54;40.80;;;38.10;;
3943;SDS011;1986;52.546;13.428;2023-06-26T12:00:24;41.07;;;38.37;;
3943;SDS011;1986;52.546;13.428;2023-06-26T12:02:51;42.83;;;40.03;;
3943;SDS011;1986;52.546;13.428;2023-06-26T12:05:31;40.60;;;37.90;;
3943;SDS011;1986;52.546;13.428;2023-06-26T12:08:03;41.17;;;38.57;;
3943;SDS011;1986;52.546;13.428;2023-06-26T12:10:32;37.27;;;34.33;;
3943;SDS011;1986;52.546;13.428;2023-06-26T12:13:13;35.63;;;33.13;;
3943;SDS011;1986;52.546;13.428;2023-06-26T12:15:55;38.57;;;35.77;;
3943;SDS011;1986;52.546;13.428;2023-06-26T12:18:25;35.60;;;33.10;;
3943;SDS011;1986;52.546;13.428;2023-06-26T12:20:56;35.87;;;33.27;;
3943;SDS011;1986;52.546;13.428;2023-06-26T12:26:18;39.27;;;36.23;;
3943;SDS011;1986;52.546;13.428;2023-06-26T12:29:01;34.53;;;32.13;;
3943;SDS011;1986;52.546;13.428;2023-06-26T12:31:32;36.40;;;33.90;;
3943;SDS011;1986;52.546;13.428;2023-06-26T12:34:08;36.73;;;34.13;;
3943;SDS011;1986;52.546;13.428;2023-06-26T12:36:42;36.87;;;34.10;;
3943;SDS011;1986;52.546;13.428;2023-06-26T12:39:14;36.83;;;34.17;;
3943;SDS011;1986;52.546;13.428;2023-06-26T12:41:46;36.67;;;33.97;;
3943;SDS011;1986;52.546;13.428;2023-06-26T12:44:19;35.67;;;33.07;;
3943;SDS011;1986;52.546;13.428;2023-06-26T12:46:47;41.43;;;38.50;;
3943;SDS011;1986;52.546;13.428;2023-06-26T12:49:15;41.10;;;38.30;;
3943;SDS011;1986;52.546;13.428;2023-06-26T12:51:45;42.57;;;39.77;;
3943;SDS011;1986;52.546;13.428;2023-06-26T12:54:14;45.40;;;42.30;;
3943;SDS011;1986;52.546;13.428;2023-06-26T12:56:42;47.50;;;44.30;;
3943;SDS011;1986;52.546;13.428;2023-06-26T12:59:10;48.00;;;44.10;;
3943;SDS011;1986;52.546;13.428;2023-06-26T13:01:37;47.20;;;44.03;;
3943;SDS011;1986;52.546;13.428;2023-06-26T13:04:05;46.47;;;43.37;;
3943;SDS011;1986;52.546;13.428;2023-06-26T13:06:33;43.63;;;40.73;;
3943;SDS011;1986;52.546;13.428;2023-06-26T13:09:04;42.07;;;38.97;;
3943;SDS011;1986;52.546;13.428;2023-06-26T13:11:31;42.77;;;39.77;;
3943;SDS011;1986;52.546;13.428;2023-06-26T13:14:00;42.03;;;39.03;;
3943;SDS011;1986;52.546;13.428;2023-06-26T13:16:27;42.23;;;39.23;;
3943;SDS011;1986;52.546;13.428;2023-06-26T13:18:54;42.60;;;39.50;;
3943;SDS011;1986;52.546;13.428;2023-06-26T13:21:24;45.23;;;41.93;;
3943;SDS011;1986;52.546;13.428;2023-06-26T13:23:53;44.00;;;40.90;;
3943;SDS011;1986;52.546;13.428;2023-06-26T13:26:23;39.17;;;36.27;;
3943;SDS011;1986;52.546;13.428;2023-06-26T13:28:53;38.13;;;35.43;;
3943;SDS011;1986;52.546;13.428;2023-06-26T13:31:23;39.43;;;36.53;;
3943;SDS011;1986;52.546;13.428;2023-06-26T13:33:52;39.23;;;36.33;;
3943;SDS011;1986;52.546;13.428;2023-06-26T13:36:19;38.50;;;35.70;;
3943;SDS011;1986;52.546;13.428;2023-06-26T13:38:50;38.70;;;36.00;;
3943;SDS011;1986;52.546;13.428;2023-06-26T13:41:23;37.60;;;34.90;;
3943;SDS011;1986;52.546;13.428;2023-06-26T13:43:53;38.63;;;35.93;;
3943;SDS011;1986;52.546;13.428;2023-06-26T13:46:20;34.70;;;32.10;;
3943;SDS011;1986;52.546;13.428;2023-06-26T13:48:47;37.97;;;34.97;;
3943;SDS011;1986;52.546;13.428;2023-06-26T13:51:14;40.27;;;36.90;;
3943;SDS011;1986;52.546;13.428;2023-06-26T13:53:41;35.40;;;32.80;;
3943;SDS011;1986;52.546;13.428;2023-06-26T13:56:08;34.57;;;31.97;;
3943;SDS011;1986;52.546;13.428;2023-06-26T13:58:37;34.17;;;31.57;;
3943;SDS011;1986;52.546;13.428;2023-06-26T14:01:04;34.17;;;31.57;;
3943;SDS011;1986;52.546;13.428;2023-06-26T14:03:31;34.93;;;32.30;;
3943;SDS011;1986;52.546;13.428;2023-06-26T14:05:59;35.40;;;32.80;;
3943;SDS011;1986;52.546;13.428;2023-06-26T14:08:26;33.40;;;30.90;;
3943;SDS011;1986;52.546;13.428;2023-06-26T14:10:53;35.37;;;32.70;;
3943;SDS011;1986;52.546;13.428;2023-06-26T14:13:20;33.80;;;31.20;;
3943;SDS011;1986;52.546;13.428;2023-06-26T14:15:48;32.17;;;29.57;;
3943;SDS011;1986;52.546;13.428;2023-06-26T14:18:17;33.00;;;30.50;;
3943;SDS011;1986;52.546;13.428;2023-06-26T14:20:46;38.50;;;34.80;;
3943;SDS011;1986;52.546;13.428;2023-06-26T14:23:13;35.70;;;32.53;;
3943;SDS011;1986;52.546;13.428;2023-06-26T14:25:40;36.37;;;33.00;;
3943;SDS011;1986;52.546;13.428;2023-06-26T14:28:07;33.83;;;28.30;;
3943;SDS011;1986;52.546;13.428;2023-06-26T14:30:36;66.70;;;60.53;;
3943;SDS011;1986;52.546;13.428;2023-06-26T14:33:06;50.60;;;45.20;;
3943;SDS011;1986;52.546;13.428;2023-06-26T14:35:33;46.30;;;42.60;;
3943;SDS011;1986;52.546;13.428;2023-06-26T14:38:02;52.13;;;46.63;;
3943;SDS011;1986;52.546;13.428;2023-06-26T14:40:29;54.60;;;45.97;;
3943;SDS011;1986;52.546;13.428;2023-06-26T14:42:56;39.23;;;35.47;;
3943;SDS011;1986;52.546;13.428;2023-06-26T14:45:23;42.67;;;39.07;;
3943;SDS011;1986;52.546;13.428;2023-06-26T14:47:50;34.40;;;31.80;;
3943;SDS011;1986;52.546;13.428;2023-06-26T14:50:18;35.07;;;32.50;;
3943;SDS011;1986;52.546;13.428;2023-06-26T14:52:46;33.23;;;30.00;;
3943;SDS011;1986;52.546;13.428;2023-06-26T14:55:13;28.83;;;26.23;;
3943;SDS011;1986;52.546;13.428;2023-06-26T14:57:40;30.00;;;27.03;;
3943;SDS011;1986;52.546;13.428;2023-06-26T15:00:08;25.30;;;23.10;;
3943;SDS011;1986;52.546;13.428;2023-06-26T15:02:35;28.20;;;25.57;;
3943;SDS011;1986;52.546;13.428;2023-06-26T15:05:02;28.47;;;22.20;;